createdAt,value
2023-04-03T00:01:19.869Z,100.00
2023-04-03T00:03:47.868Z,100.00
2023-04-03T00:06:15.419Z,100.00
2023-04-03T00:08:42.799Z,100.00
2023-04-03T00:11:11.220Z,100.00
2023-04-03T00:13:39.985Z,100.00
2023-04-03T00:16:09.729Z,100.00
2023-04-03T00:18:38.140Z,100.00
2023-04-03T00:21:07.406Z,100.00
2023-04-03T00:23:34.849Z,100.00
2023-04-03T00:26:02.197Z,100.00
2023-04-03T00:28:29.574Z,100.00
2023-04-03T00:30:56.846Z,100.00
2023-04-03T00:33:25.597Z,100.00
2023-04-03T00:35:53.020Z,100.00
2023-04-03T00:38:20.697Z,100.00
2023-04-03T00:40:50.766Z,100.00
2023-04-03T00:43:25.682Z,100.00
2023-04-03T00:45:56.676Z,100.00
2023-04-03T00:48:37.541Z,100.00
2023-04-03T00:51:07.007Z,100.00
2023-04-03T00:53:42.731Z,100.00
2023-04-03T00:56:15.688Z,100.00
2023-04-03T00:59:06.980Z,100.00
2023-04-03T01:01:35.491Z,100.00
2023-04-03T01:04:04.734Z,100.00
2023-04-03T01:06:37.430Z,100.00
2023-04-03T01:09:08.110Z,100.00
2023-04-03T01:11:35.535Z,100.00
2023-04-03T01:14:03.480Z,100.00
2023-04-03T01:16:33.038Z,100.00
2023-04-03T01:19:02.391Z,100.00
2023-04-03T01:21:49.031Z,100.00
2023-04-03T01:24:37.439Z,100.00
2023-04-03T01:27:10.574Z,100.00
2023-04-03T01:29:38.854Z,100.00
2023-04-03T01:32:06.529Z,100.00
2023-04-03T01:34:34.042Z,100.00
2023-04-03T01:37:02.125Z,100.00
2023-04-03T01:39:29.333Z,100.00
2023-04-03T01:41:57.030Z,100.00
2023-04-03T01:44:30.518Z,100.00
2023-04-03T01:46:58.000Z,100.00
2023-04-03T01:49:27.081Z,100.00
2023-04-03T01:51:54.390Z,100.00
2023-04-03T01:54:21.675Z,100.00
2023-04-03T01:56:49.000Z,100.00
2023-04-03T01:59:18.140Z,100.00
2023-04-03T02:01:46.309Z,100.00
2023-04-03T02:04:14.245Z,100.00
2023-04-03T02:06:42.298Z,100.00
2023-04-03T02:09:09.767Z,100.00
2023-04-03T02:11:36.940Z,100.00
2023-04-03T02:14:04.983Z,100.00
2023-04-03T02:16:32.217Z,100.00
2023-04-03T02:18:59.804Z,100.00
2023-04-03T02:21:27.273Z,100.00
2023-04-03T02:23:54.668Z,100.00
2023-04-03T02:26:22.194Z,100.00
2023-04-03T02:28:49.460Z,100.00
2023-04-03T02:31:16.889Z,100.00
2023-04-03T02:33:46.655Z,100.00
2023-04-03T02:36:15.923Z,100.00
2023-04-03T02:38:46.876Z,100.00
2023-04-03T02:41:14.844Z,100.00
2023-04-03T02:43:42.206Z,100.00
2023-04-03T02:46:09.699Z,100.00
2023-04-03T02:48:38.086Z,100.00
2023-04-03T02:51:05.639Z,100.00
2023-04-03T02:53:33.161Z,100.00
2023-04-03T02:56:06.531Z,100.00
2023-04-03T02:58:33.930Z,100.00
2023-04-03T03:01:02.551Z,100.00
2023-04-03T03:03:29.824Z,100.00
2023-04-03T03:06:13.676Z,100.00
2023-04-03T03:08:42.031Z,100.00
2023-04-03T03:11:09.840Z,100.00
2023-04-03T03:13:37.893Z,100.00
2023-04-03T03:16:05.649Z,100.00
2023-04-03T03:18:33.407Z,100.00
2023-04-03T03:21:04.136Z,100.00
2023-04-03T03:23:33.966Z,100.00
2023-04-03T03:26:09.112Z,100.00
2023-04-03T03:28:37.963Z,100.00
2023-04-03T03:31:07.357Z,100.00
2023-04-03T03:33:36.490Z,100.00
2023-04-03T03:36:04.053Z,100.00
2023-04-03T03:38:31.764Z,100.00
2023-04-03T03:41:00.780Z,100.00
2023-04-03T03:43:29.356Z,100.00
2023-04-03T03:45:57.145Z,100.00
2023-04-03T03:48:25.842Z,100.00
2023-04-03T03:50:53.250Z,100.00
2023-04-03T03:53:24.644Z,100.00
2023-04-03T03:55:54.954Z,100.00
2023-04-03T03:58:25.304Z,100.00
2023-04-03T04:00:52.955Z,100.00
2023-04-03T04:03:20.534Z,100.00
2023-04-03T04:05:49.543Z,100.00
2023-04-03T04:08:17.357Z,100.00
2023-04-03T04:10:46.184Z,100.00
2023-04-03T04:13:15.814Z,100.00
2023-04-03T04:15:44.717Z,100.00
2023-04-03T04:18:12.278Z,100.00
2023-04-03T04:20:42.528Z,100.00
2023-04-03T04:23:10.012Z,100.00
2023-04-03T04:25:38.510Z,100.00
2023-04-03T04:28:07.191Z,100.00
2023-04-03T04:30:35.283Z,100.00
2023-04-03T04:33:03.439Z,100.00
2023-04-03T04:35:33.031Z,100.00
2023-04-03T04:38:01.020Z,100.00
2023-04-03T04:40:28.485Z,100.00
2023-04-03T04:42:56.820Z,100.00
2023-04-03T04:45:24.406Z,100.00
2023-04-03T04:47:53.404Z,100.00
2023-04-03T04:50:21.398Z,100.00
2023-04-03T04:52:48.849Z,100.00
2023-04-03T04:55:16.640Z,100.00
2023-04-03T04:57:43.970Z,100.00
2023-04-03T05:00:12.190Z,100.00
2023-04-03T05:02:39.690Z,100.00
2023-04-03T05:05:07.857Z,100.00
2023-04-03T05:07:36.725Z,100.00
2023-04-03T05:10:05.023Z,100.00
2023-04-03T05:12:33.805Z,100.00
2023-04-03T05:15:03.995Z,100.00
2023-04-03T05:17:32.323Z,100.00
2023-04-03T05:19:59.910Z,100.00
2023-04-03T05:22:28.795Z,100.00
2023-04-03T05:25:00.420Z,100.00
2023-04-03T05:27:31.524Z,100.00
2023-04-03T05:30:00.842Z,100.00
2023-04-03T05:32:28.814Z,100.00
2023-04-03T05:35:12.393Z,100.00
2023-04-03T05:37:41.980Z,100.00
2023-04-03T05:40:10.170Z,100.00
2023-04-03T05:42:40.771Z,100.00
2023-04-03T05:45:08.870Z,100.00
2023-04-03T05:47:36.112Z,100.00
2023-04-03T05:50:05.486Z,100.00
2023-04-03T05:52:41.262Z,100.00
2023-04-03T05:55:09.295Z,100.00
2023-04-03T05:57:37.372Z,100.00
2023-04-03T06:00:13.675Z,100.00
2023-04-03T06:02:49.019Z,100.00
2023-04-03T06:05:20.219Z,100.00
2023-04-03T06:07:47.489Z,100.00
2023-04-03T06:10:15.964Z,100.00
2023-04-03T06:12:43.457Z,100.00
2023-04-03T06:15:11.300Z,100.00
2023-04-03T06:17:40.226Z,100.00
2023-04-03T06:20:10.562Z,100.00
2023-04-03T06:22:38.075Z,100.00
2023-04-03T06:25:07.332Z,100.00
2023-04-03T06:27:34.664Z,100.00
2023-04-03T06:30:02.102Z,100.00
2023-04-03T06:32:29.468Z,100.00
2023-04-03T06:34:58.209Z,100.00
2023-04-03T06:37:27.239Z,100.00
2023-04-03T06:39:54.609Z,100.00
2023-04-03T06:42:22.343Z,100.00
2023-04-03T06:44:59.100Z,100.00
2023-04-03T06:47:26.450Z,100.00
2023-04-03T06:49:53.748Z,100.00
2023-04-03T06:52:21.803Z,100.00
2023-04-03T06:54:49.068Z,100.00
2023-04-03T06:57:16.399Z,100.00
2023-04-03T06:59:44.001Z,100.00
2023-04-03T07:02:13.965Z,100.00
2023-04-03T07:04:41.553Z,100.00
2023-04-03T07:07:08.804Z,100.00
2023-04-03T07:09:36.164Z,100.00
2023-04-03T07:12:03.502Z,100.00
2023-04-03T07:14:31.031Z,100.00
2023-04-03T07:16:58.350Z,100.00
2023-04-03T07:19:28.438Z,100.00
2023-04-03T07:21:56.159Z,100.00
2023-04-03T07:24:23.765Z,100.00
2023-04-03T07:26:53.045Z,100.00
2023-04-03T07:29:22.578Z,100.00
2023-04-03T07:31:50.469Z,100.00
2023-04-03T07:34:17.974Z,100.00
2023-04-03T07:36:45.139Z,100.00
2023-04-03T07:39:12.556Z,100.00
2023-04-03T07:41:40.124Z,100.00
2023-04-03T07:44:07.621Z,100.00
2023-04-03T07:46:34.877Z,100.00
2023-04-03T07:49:02.298Z,100.00
2023-04-03T07:51:30.860Z,100.00
2023-04-03T07:53:58.060Z,100.00
2023-04-03T07:56:26.248Z,98.92
2023-04-03T07:58:53.460Z,100.00
2023-04-03T08:01:21.027Z,97.52
2023-04-03T08:03:48.470Z,99.05
2023-04-03T08:06:18.580Z,100.00
2023-04-03T08:08:48.322Z,98.87
2023-04-03T08:11:15.562Z,99.28
2023-04-03T08:13:43.933Z,96.79
2023-04-03T08:16:17.678Z,97.71
2023-04-03T08:18:45.397Z,97.09
2023-04-03T08:21:13.930Z,95.82
2023-04-03T08:23:42.821Z,94.62
2023-04-03T08:26:17.202Z,89.15
2023-04-03T08:28:44.677Z,87.18
2023-04-03T08:31:16.758Z,83.38
2023-04-03T08:33:44.197Z,80.35
2023-04-03T08:36:25.079Z,82.75
2023-04-03T08:38:53.466Z,75.52
2023-04-03T08:41:44.431Z,59.91
2023-04-03T08:44:46.374Z,58.79
2023-04-03T08:47:29.560Z,56.84
2023-04-03T08:50:12.985Z,41.02
2023-04-03T08:52:46.952Z,40.43
2023-04-03T08:55:34.323Z,42.77
2023-04-03T08:58:35.009Z,48.93
2023-04-03T09:01:16.669Z,50.02
2023-04-03T09:03:44.218Z,47.42
2023-04-03T09:06:26.617Z,49.22
2023-04-03T09:09:16.686Z,43.82
2023-04-03T09:11:51.230Z,36.63
2023-04-03T09:14:46.064Z,32.44
2023-04-03T09:17:47.442Z,40.25
2023-04-03T09:21:03.820Z,43.35
2023-04-03T09:23:59.036Z,41.32
2023-04-03T09:27:01.920Z,44.16
2023-04-03T09:29:29.760Z,46.96
2023-04-03T09:32:29.629Z,46.35
2023-04-03T09:35:27.471Z,56.70
2023-04-03T09:38:22.930Z,52.49
2023-04-03T09:41:16.140Z,52.35
2023-04-03T09:43:55.227Z,53.46
2023-04-03T09:46:36.072Z,53.96
2023-04-03T09:49:09.359Z,47.46
2023-04-03T09:51:37.839Z,47.05
2023-04-03T09:54:32.991Z,42.03
2023-04-03T09:57:14.127Z,39.54
2023-04-03T09:59:47.552Z,36.91
2023-04-03T10:02:25.799Z,34.88
2023-04-03T10:05:08.401Z,30.46
2023-04-03T10:07:39.459Z,28.47
2023-04-03T10:10:19.523Z,31.29
2023-04-03T10:12:47.189Z,32.68
2023-04-03T10:15:21.072Z,35.59
2023-04-03T10:18:14.335Z,36.17
2023-04-03T10:20:48.482Z,39.28
2023-04-03T10:23:46.921Z,39.41
2023-04-03T10:26:44.440Z,38.10
2023-04-03T10:29:49.592Z,32.56
2023-04-03T10:32:44.800Z,35.37
2023-04-03T10:35:58.436Z,36.51
2023-04-03T10:38:58.283Z,32.12
2023-04-03T10:41:40.674Z,28.33
2023-04-03T10:44:17.763Z,27.77
2023-04-03T10:47:02.221Z,29.67
2023-04-03T10:49:59.989Z,25.83
2023-04-03T10:53:13.844Z,27.73
2023-04-03T10:56:08.866Z,26.69
2023-04-03T10:58:58.987Z,27.26
2023-04-03T11:01:34.100Z,30.04
2023-04-03T11:04:06.073Z,30.05
2023-04-03T11:06:54.501Z,29.08
2023-04-03T11:09:38.991Z,32.60
2023-04-03T11:12:11.785Z,34.02
2023-04-03T11:14:40.850Z,29.55
2023-04-03T11:17:45.407Z,30.49
2023-04-03T11:20:35.126Z,33.61
2023-04-03T11:23:22.643Z,34.00
2023-04-03T11:25:54.727Z,32.88
2023-04-03T11:28:22.165Z,35.95
2023-04-03T11:31:10.552Z,36.45
2023-04-03T11:34:06.637Z,33.70
2023-04-03T11:36:48.537Z,33.81
2023-04-03T11:39:31.423Z,32.35
2023-04-03T11:42:31.981Z,32.46
2023-04-03T11:45:24.506Z,31.92
2023-04-03T11:48:23.218Z,31.07
2023-04-03T11:50:53.061Z,31.89
2023-04-03T11:53:35.848Z,31.55
2023-04-03T11:56:05.607Z,32.55
2023-04-03T11:58:35.423Z,35.38
2023-04-03T12:01:12.110Z,37.97
2023-04-03T12:03:43.383Z,35.22
2023-04-03T12:06:17.700Z,32.68
2023-04-03T12:08:57.653Z,32.04
2023-04-03T12:11:33.159Z,34.39
2023-04-03T12:14:00.316Z,35.79
2023-04-03T12:16:39.394Z,37.33
2023-04-03T12:19:16.016Z,41.39
2023-04-03T12:21:53.176Z,37.48
2023-04-03T12:24:30.665Z,37.90
2023-04-03T12:27:43.247Z,34.58
2023-04-03T12:30:26.438Z,35.88
2023-04-03T12:33:12.721Z,35.62
2023-04-03T12:36:16.408Z,38.85
2023-04-03T12:39:08.405Z,37.74
2023-04-03T12:42:46.268Z,38.62
2023-04-03T12:45:21.962Z,40.96
2023-04-03T12:47:56.943Z,40.89
2023-04-03T12:50:34.041Z,40.11
2023-04-03T12:53:13.964Z,38.23
2023-04-03T12:55:41.575Z,37.74
2023-04-03T12:58:28.348Z,39.53
2023-04-03T13:01:15.118Z,39.76
2023-04-03T13:03:47.950Z,41.20
2023-04-03T13:06:32.413Z,41.07
2023-04-03T13:09:02.168Z,39.95
2023-04-03T13:11:39.407Z,39.04
2023-04-03T13:14:24.551Z,38.05
2023-04-03T13:16:56.147Z,39.62
2023-04-03T13:19:29.926Z,39.40
2023-04-03T13:22:29.355Z,39.34
2023-04-03T13:25:02.619Z,40.06
2023-04-03T13:27:33.279Z,40.45
2023-04-03T13:30:04.538Z,40.81
2023-04-03T13:32:34.133Z,43.18
2023-04-03T13:35:15.512Z,44.49
2023-04-03T13:37:59.236Z,43.42
2023-04-03T13:40:41.353Z,40.26
2023-04-03T13:43:43.165Z,39.26
2023-04-03T13:46:13.407Z,36.69
2023-04-03T13:48:46.505Z,38.00
2023-04-03T13:51:13.930Z,38.05
2023-04-03T13:53:58.760Z,39.76
2023-04-03T13:56:34.500Z,40.07
2023-04-03T13:59:36.183Z,41.35
2023-04-03T14:02:03.259Z,43.43
2023-04-03T14:04:46.061Z,42.24
2023-04-03T14:07:15.219Z,38.95
2023-04-03T14:09:42.698Z,39.13
2023-04-03T14:12:30.120Z,42.13
2023-04-03T14:15:00.649Z,41.42
2023-04-03T14:17:29.155Z,40.89
2023-04-03T14:19:58.862Z,41.81
2023-04-03T14:22:31.592Z,43.10
2023-04-03T14:24:59.506Z,39.58
2023-04-03T14:27:36.945Z,42.10
2023-04-03T14:30:07.845Z,41.91
2023-04-03T14:32:35.041Z,43.84
2023-04-03T14:35:02.599Z,44.10
2023-04-03T14:37:31.829Z,43.92
2023-04-03T14:40:01.689Z,43.54
2023-04-03T14:42:34.133Z,44.28
2023-04-03T14:45:04.624Z,43.59
2023-04-03T14:47:32.892Z,43.21
2023-04-03T14:50:08.281Z,45.01
2023-04-03T14:52:37.237Z,44.50
2023-04-03T14:55:09.103Z,42.46
2023-04-03T14:57:37.129Z,42.19
2023-04-03T15:00:08.285Z,42.40
2023-04-03T15:02:39.041Z,42.17
2023-04-03T15:05:10.830Z,43.98
2023-04-03T15:07:45.942Z,46.05
2023-04-03T15:10:18.835Z,44.68
2023-04-03T15:12:48.011Z,46.20
2023-04-03T15:15:17.557Z,48.83
2023-04-03T15:17:46.712Z,47.30
2023-04-03T15:20:18.708Z,46.00
2023-04-03T15:22:46.836Z,45.80
2023-04-03T15:25:14.643Z,48.50
2023-04-03T15:27:42.546Z,48.08
2023-04-03T15:30:16.908Z,46.34
2023-04-03T15:32:44.561Z,44.86
2023-04-03T15:35:12.338Z,45.31
2023-04-03T15:37:39.599Z,44.36
2023-04-03T15:40:09.952Z,44.17
2023-04-03T15:42:37.549Z,45.14
2023-04-03T15:45:05.424Z,43.25
2023-04-03T15:47:32.876Z,43.95
2023-04-03T15:50:00.474Z,46.75
2023-04-03T15:52:27.830Z,45.38
2023-04-03T15:54:55.158Z,44.00
2023-04-03T15:57:27.119Z,46.86
2023-04-03T15:59:55.227Z,44.19
2023-04-03T16:02:22.606Z,46.15
2023-04-03T16:04:50.589Z,46.23
2023-04-03T16:07:17.952Z,45.96
2023-04-03T16:09:45.185Z,48.12
2023-04-03T16:12:12.672Z,47.78
2023-04-03T16:14:39.944Z,48.92
2023-04-03T16:17:07.240Z,50.85
2023-04-03T16:19:34.507Z,50.67
2023-04-03T16:22:02.393Z,50.97
2023-04-03T16:24:30.402Z,52.17
2023-04-03T16:26:57.668Z,50.66
2023-04-03T16:29:24.945Z,50.06
2023-04-03T16:31:53.081Z,49.08
2023-04-03T16:34:20.694Z,52.39
2023-04-03T16:36:48.071Z,49.67
2023-04-03T16:39:15.530Z,50.26
2023-04-03T16:41:42.761Z,50.99
2023-04-03T16:44:10.120Z,49.03
2023-04-03T16:46:37.497Z,47.17
2023-04-03T16:49:05.234Z,48.28
2023-04-03T16:51:33.078Z,48.62
2023-04-03T16:54:00.594Z,48.03
2023-04-03T16:56:28.481Z,49.88
2023-04-03T16:58:56.241Z,52.35
2023-04-03T17:01:24.198Z,51.47
2023-04-03T17:03:51.625Z,51.19
2023-04-03T17:06:24.440Z,52.18
2023-04-03T17:08:53.277Z,51.67
2023-04-03T17:11:31.932Z,53.01
2023-04-03T17:13:59.686Z,52.80
2023-04-03T17:16:27.587Z,51.68
2023-04-03T17:18:56.102Z,52.25
2023-04-03T17:21:24.080Z,50.17
2023-04-03T17:23:58.747Z,51.32
2023-04-03T17:26:27.347Z,52.99
2023-04-03T17:28:55.207Z,53.71
2023-04-03T17:31:22.391Z,53.53
2023-04-03T17:33:49.660Z,55.85
2023-04-03T17:36:17.141Z,53.07
2023-04-03T17:38:44.505Z,53.09
2023-04-03T17:41:11.939Z,52.08
2023-04-03T17:43:39.455Z,53.18
2023-04-03T17:46:10.810Z,53.26
2023-04-03T17:48:41.018Z,53.64
2023-04-03T17:51:18.357Z,52.76
2023-04-03T17:53:45.846Z,54.98
2023-04-03T17:56:27.234Z,55.86
2023-04-03T17:58:58.288Z,55.35
2023-04-03T18:01:31.415Z,55.36
2023-04-03T18:04:02.386Z,56.03
2023-04-03T18:06:46.653Z,54.52
2023-04-03T18:09:32.242Z,54.20
2023-04-03T18:12:03.248Z,56.41
2023-04-03T18:14:32.879Z,55.94
2023-04-03T18:17:00.719Z,58.38
2023-04-03T18:19:29.790Z,56.19
2023-04-03T18:22:02.243Z,56.98
2023-04-03T18:24:34.667Z,56.78
2023-04-03T18:27:13.058Z,57.62
2023-04-03T18:29:43.721Z,57.08
2023-04-03T18:32:14.817Z,57.28
2023-04-03T18:34:42.605Z,56.94
2023-04-03T18:37:10.083Z,57.07
2023-04-03T18:39:37.696Z,53.84
2023-04-03T18:42:14.298Z,58.69
2023-04-03T18:44:45.103Z,56.04
2023-04-03T18:47:12.763Z,56.96
2023-04-03T18:49:42.012Z,55.56
2023-04-03T18:52:11.267Z,56.79
2023-04-03T18:54:40.008Z,58.06
2023-04-03T18:57:07.395Z,56.82
2023-04-03T18:59:34.966Z,56.42
2023-04-03T19:02:02.572Z,55.51
2023-04-03T19:04:31.001Z,55.44
2023-04-03T19:06:58.413Z,55.52
2023-04-03T19:09:26.591Z,55.48
2023-04-03T19:11:54.004Z,56.31
2023-04-03T19:14:21.406Z,56.91
2023-04-03T19:16:49.077Z,57.59
2023-04-03T19:19:16.425Z,58.31
2023-04-03T19:21:44.049Z,59.99
2023-04-03T19:24:13.414Z,57.32
2023-04-03T19:26:42.239Z,59.10
2023-04-03T19:29:10.640Z,58.00
2023-04-03T19:31:38.782Z,60.31
2023-04-03T19:34:07.139Z,60.22
2023-04-03T19:36:36.224Z,57.93
2023-04-03T19:39:05.179Z,57.72
2023-04-03T19:41:36.251Z,59.41
2023-04-03T19:44:07.402Z,58.86
2023-04-03T19:46:36.587Z,60.10
2023-04-03T19:49:05.127Z,58.69
2023-04-03T19:51:32.594Z,60.87
2023-04-03T19:53:59.993Z,60.09
2023-04-03T19:56:27.475Z,60.51
2023-04-03T19:58:55.030Z,60.28
2023-04-03T20:01:24.691Z,59.87
2023-04-03T20:03:52.549Z,60.80
2023-04-03T20:06:20.085Z,61.75
2023-04-03T20:08:47.532Z,61.68
2023-04-03T20:11:14.709Z,60.17
2023-04-03T20:13:42.058Z,60.99
2023-04-03T20:16:10.297Z,61.44
2023-04-03T20:18:38.771Z,60.37
2023-04-03T20:21:08.231Z,60.57
2023-04-03T20:23:37.362Z,60.33
2023-04-03T20:26:13.989Z,59.64
2023-04-03T20:28:43.505Z,62.84
2023-04-03T20:31:12.089Z,59.36
2023-04-03T20:33:39.928Z,60.86
2023-04-03T20:36:07.635Z,59.82
2023-04-03T20:38:35.075Z,61.37
2023-04-03T20:41:02.403Z,62.31
2023-04-03T20:43:30.186Z,60.81
2023-04-03T20:46:01.613Z,61.49
2023-04-03T20:48:31.227Z,62.52
2023-04-03T20:50:59.157Z,60.59
2023-04-03T20:53:27.235Z,61.21
2023-04-03T20:56:00.203Z,60.27
2023-04-03T20:58:34.025Z,61.76
2023-04-03T21:01:01.469Z,60.14
2023-04-03T21:03:32.857Z,62.06
2023-04-03T21:06:00.594Z,62.30
2023-04-03T21:09:24.224Z,63.58
2023-04-03T21:12:47.563Z,60.64
2023-04-03T21:16:00.173Z,61.23
2023-04-03T21:18:49.770Z,62.04
2023-04-03T21:21:24.554Z,62.62
2023-04-03T21:23:54.152Z,64.97
2023-04-03T21:26:22.956Z,62.92
2023-04-03T21:28:54.910Z,63.66
2023-04-03T21:31:23.126Z,64.50
2023-04-03T21:33:51.533Z,64.51
2023-04-03T21:36:18.815Z,66.15
2023-04-03T21:38:47.825Z,64.32
2023-04-03T21:41:15.747Z,64.90
2023-04-03T21:43:45.243Z,65.31
2023-04-03T21:46:12.854Z,65.53
2023-04-03T21:48:40.404Z,65.83
2023-04-03T21:51:08.414Z,65.24
2023-04-03T21:53:36.181Z,65.54
2023-04-03T21:56:03.547Z,64.48
2023-04-03T21:58:32.241Z,64.83
2023-04-03T22:01:10.080Z,64.33
2023-04-03T22:03:38.269Z,66.52
2023-04-03T22:06:06.112Z,65.55
2023-04-03T22:08:33.839Z,65.21
2023-04-03T22:11:15.167Z,65.73
2023-04-03T22:13:43.680Z,65.78
2023-04-03T22:16:12.844Z,67.09
2023-04-03T22:18:40.141Z,68.10
2023-04-03T22:21:10.282Z,68.70
2023-04-03T22:23:37.946Z,67.20
2023-04-03T22:26:11.761Z,68.66
2023-04-03T22:28:45.338Z,66.63
2023-04-03T22:31:14.436Z,67.85
2023-04-03T22:33:43.550Z,66.90
2023-04-03T22:36:13.165Z,66.49
2023-04-03T22:38:45.018Z,67.56
2023-04-03T22:41:12.528Z,68.04
2023-04-03T22:43:40.001Z,68.90
2023-04-03T22:46:09.463Z,68.55
2023-04-03T22:48:38.619Z,68.42
2023-04-03T22:51:09.393Z,70.16
2023-04-03T22:53:36.891Z,69.26
2023-04-03T22:56:11.048Z,69.26
2023-04-03T22:58:39.157Z,70.26
2023-04-03T23:01:12.354Z,69.67
2023-04-03T23:03:42.387Z,70.46
2023-04-03T23:06:11.095Z,73.27
2023-04-03T23:08:39.048Z,72.28
2023-04-03T23:11:09.986Z,71.96
2023-04-03T23:13:37.466Z,72.67
2023-04-03T23:16:05.579Z,73.28
2023-04-03T23:18:33.499Z,72.94
2023-04-03T23:21:03.245Z,73.84
2023-04-03T23:23:30.950Z,74.98
2023-04-03T23:26:00.455Z,76.29
2023-04-03T23:28:29.310Z,75.73
2023-04-03T23:31:02.018Z,76.16
2023-04-03T23:33:31.362Z,76.74
2023-04-03T23:35:59.670Z,78.59
2023-04-03T23:38:26.980Z,79.98
2023-04-03T23:40:54.203Z,79.56
2023-04-03T23:43:21.716Z,80.74
2023-04-03T23:45:48.993Z,80.02
2023-04-03T23:48:16.313Z,80.13
2023-04-03T23:50:46.726Z,78.82
2023-04-03T23:53:14.170Z,80.27
2023-04-03T23:55:42.139Z,80.90
2023-04-03T23:58:09.640Z,80.93
